sensor_id;sensor_type;location;lat;lon;timestamp;P1;durP1;ratioP1;P2;durP2;ratioP2
39948;SDS011;29070;48.102;-1.652;2024-01-25T00:01:49;11.77;;;2.37;;
39948;SDS011;29070;48.102;-1.652;2024-01-25T00:06:49;18.87;;;2.77;;
39948;SDS011;29070;48.102;-1.652;2024-01-25T00:11:49;10.93;;;2.13;;
39948;SDS011;29070;48.102;-1.652;2024-01-25T00:16:50;13.03;;;1.97;;
39948;SDS011;29070;48.102;-1.652;2024-01-25T00:21:51;8.85;;;2.10;;
39948;SDS011;29070;48.102;-1.652;2024-01-25T00:26:51;10.53;;;1.90;;
39948;SDS011;29070;48.102;-1.652;2024-01-25T00:31:52;9.67;;;2.07;;
39948;SDS011;29070;48.102;-1.652;2024-01-25T00:36:52;12.80;;;2.50;;
39948;SDS011;29070;48.102;-1.652;2024-01-25T00:41:55;11.27;;;2.30;;
39948;SDS011;29070;48.102;-1.652;2024-01-25T00:47:02;15.50;;;2.80;;
39948;SDS011;29070;48.102;-1.652;2024-01-25T00:52:03;10.43;;;2.22;;
39948;SDS011;29070;48.102;-1.652;2024-01-25T00:57:04;9.77;;;1.88;;
39948;SDS011;29070;48.102;-1.652;2024-01-25T01:02:05;9.98;;;1.98;;
39948;SDS011;29070;48.102;-1.652;2024-01-25T01:12:11;11.53;;;2.17;;
39948;SDS011;29070;48.102;-1.652;2024-01-25T01:17:11;10.23;;;1.77;;
39948;SDS011;29070;48.102;-1.652;2024-01-25T01:22:12;8.60;;;1.80;;
39948;SDS011;29070;48.102;-1.652;2024-01-25T01:27:12;12.97;;;2.23;;
39948;SDS011;29070;48.102;-1.652;2024-01-25T01:32:12;13.30;;;1.93;;
39948;SDS011;29070;48.102;-1.652;2024-01-25T01:37:13;7.40;;;1.77;;
39948;SDS011;29070;48.102;-1.652;2024-01-25T01:42:13;7.15;;;1.70;;
39948;SDS011;29070;48.102;-1.652;2024-01-25T01:47:14;8.67;;;2.23;;
39948;SDS011;29070;48.102;-1.652;2024-01-25T01:52:14;12.35;;;1.90;;
39948;SDS011;29070;48.102;-1.652;2024-01-25T01:57:17;8.60;;;1.45;;
39948;SDS011;29070;48.102;-1.652;2024-01-25T02:02:18;13.98;;;1.88;;
39948;SDS011;29070;48.102;-1.652;2024-01-25T02:07:18;8.25;;;1.60;;
39948;SDS011;29070;48.102;-1.652;2024-01-25T02:12:19;10.30;;;2.20;;
39948;SDS011;29070;48.102;-1.652;2024-01-25T02:17:19;10.77;;;1.83;;
39948;SDS011;29070;48.102;-1.652;2024-01-25T02:22:19;5.27;;;1.97;;
39948;SDS011;29070;48.102;-1.652;2024-01-25T02:27:20;8.70;;;1.90;;
39948;SDS011;29070;48.102;-1.652;2024-01-25T02:32:20;10.35;;;1.60;;
39948;SDS011;29070;48.102;-1.652;2024-01-25T02:37:21;12.73;;;2.03;;
39948;SDS011;29070;48.102;-1.652;2024-01-25T02:42:22;15.30;;;2.00;;
39948;SDS011;29070;48.102;-1.652;2024-01-25T02:47:23;8.60;;;1.60;;
39948;SDS011;29070;48.102;-1.652;2024-01-25T02:52:23;10.32;;;2.17;;
39948;SDS011;29070;48.102;-1.652;2024-01-25T02:57:24;13.33;;;2.37;;
39948;SDS011;29070;48.102;-1.652;2024-01-25T03:02:25;5.90;;;1.98;;
39948;SDS011;29070;48.102;-1.652;2024-01-25T03:07:25;15.27;;;2.10;;
39948;SDS011;29070;48.102;-1.652;2024-01-25T03:12:26;7.57;;;1.83;;
39948;SDS011;29070;48.102;-1.652;2024-01-25T03:17:26;8.80;;;2.13;;
39948;SDS011;29070;48.102;-1.652;2024-01-25T03:22:26;11.40;;;2.77;;
39948;SDS011;29070;48.102;-1.652;2024-01-25T03:27:27;8.55;;;1.98;;
39948;SDS011;29070;48.102;-1.652;2024-01-25T03:32:27;13.82;;;2.33;;
39948;SDS011;29070;48.102;-1.652;2024-01-25T03:37:27;13.47;;;2.10;;
39948;SDS011;29070;48.102;-1.652;2024-01-25T03:42:28;9.10;;;1.80;;
39948;SDS011;29070;48.102;-1.652;2024-01-25T03:47:28;21.43;;;2.13;;
39948;SDS011;29070;48.102;-1.652;2024-01-25T03:52:28;9.50;;;1.65;;
39948;SDS011;29070;48.102;-1.652;2024-01-25T03:57:30;11.57;;;1.58;;
39948;SDS011;29070;48.102;-1.652;2024-01-25T04:02:30;5.23;;;1.20;;
39948;SDS011;29070;48.102;-1.652;2024-01-25T04:07:31;8.13;;;1.55;;
39948;SDS011;29070;48.102;-1.652;2024-01-25T04:12:31;6.33;;;1.10;;
39948;SDS011;29070;48.102;-1.652;2024-01-25T04:17:33;10.65;;;1.33;;
39948;SDS011;29070;48.102;-1.652;2024-01-25T04:22:34;8.75;;;1.60;;
39948;SDS011;29070;48.102;-1.652;2024-01-25T04:27:36;7.43;;;1.58;;
39948;SDS011;29070;48.102;-1.652;2024-01-25T04:32:38;6.65;;;1.15;;
39948;SDS011;29070;48.102;-1.652;2024-01-25T04:37:38;5.37;;;1.23;;
39948;SDS011;29070;48.102;-1.652;2024-01-25T04:42:38;8.37;;;1.40;;
39948;SDS011;29070;48.102;-1.652;2024-01-25T04:47:39;8.30;;;1.53;;
39948;SDS011;29070;48.102;-1.652;2024-01-25T04:52:39;8.30;;;1.20;;
39948;SDS011;29070;48.102;-1.652;2024-01-25T04:57:40;4.37;;;1.47;;
39948;SDS011;29070;48.102;-1.652;2024-01-25T05:02:40;7.63;;;1.60;;
39948;SDS011;29070;48.102;-1.652;2024-01-25T05:07:41;4.70;;;1.58;;
39948;SDS011;29070;48.102;-1.652;2024-01-25T05:12:41;4.53;;;1.38;;
39948;SDS011;29070;48.102;-1.652;2024-01-25T05:17:41;6.67;;;1.30;;
39948;SDS011;29070;48.102;-1.652;2024-01-25T05:22:42;6.57;;;1.33;;
39948;SDS011;29070;48.102;-1.652;2024-01-25T05:27:42;4.97;;;1.15;;
39948;SDS011;29070;48.102;-1.652;2024-01-25T05:32:43;8.40;;;1.50;;
39948;SDS011;29070;48.102;-1.652;2024-01-25T05:37:43;7.70;;;1.90;;
39948;SDS011;29070;48.102;-1.652;2024-01-25T05:42:43;11.25;;;1.40;;
39948;SDS011;29070;48.102;-1.652;2024-01-25T05:47:44;3.70;;;1.20;;
39948;SDS011;29070;48.102;-1.652;2024-01-25T05:52:44;9.15;;;1.80;;
39948;SDS011;29070;48.102;-1.652;2024-01-25T05:57:45;10.50;;;1.70;;
39948;SDS011;29070;48.102;-1.652;2024-01-25T06:02:45;8.47;;;1.40;;
39948;SDS011;29070;48.102;-1.652;2024-01-25T06:07:46;9.43;;;1.30;;
39948;SDS011;29070;48.102;-1.652;2024-01-25T06:12:46;7.55;;;2.35;;
39948;SDS011;29070;48.102;-1.652;2024-01-25T06:17:46;5.13;;;1.23;;
39948;SDS011;29070;48.102;-1.652;2024-01-25T06:22:47;5.60;;;1.23;;
39948;SDS011;29070;48.102;-1.652;2024-01-25T06:27:47;7.45;;;1.67;;
39948;SDS011;29070;48.102;-1.652;2024-01-25T06:32:48;7.90;;;1.73;;
39948;SDS011;29070;48.102;-1.652;2024-01-25T06:37:49;5.22;;;1.55;;
39948;SDS011;29070;48.102;-1.652;2024-01-25T06:42:49;6.30;;;1.30;;
39948;SDS011;29070;48.102;-1.652;2024-01-25T06:47:49;13.03;;;2.10;;
39948;SDS011;29070;48.102;-1.652;2024-01-25T06:52:50;7.13;;;1.67;;
39948;SDS011;29070;48.102;-1.652;2024-01-25T06:57:50;8.00;;;1.70;;
39948;SDS011;29070;48.102;-1.652;2024-01-25T07:02:50;5.07;;;1.65;;
39948;SDS011;29070;48.102;-1.652;2024-01-25T07:07:51;11.70;;;2.20;;
39948;SDS011;29070;48.102;-1.652;2024-01-25T07:12:51;9.30;;;2.10;;
39948;SDS011;29070;48.102;-1.652;2024-01-25T07:17:52;7.05;;;1.98;;
39948;SDS011;29070;48.102;-1.652;2024-01-25T07:22:53;6.00;;;1.77;;
39948;SDS011;29070;48.102;-1.652;2024-01-25T07:27:53;6.40;;;1.80;;
39948;SDS011;29070;48.102;-1.652;2024-01-25T07:32:53;9.30;;;2.00;;
39948;SDS011;29070;48.102;-1.652;2024-01-25T07:37:54;5.27;;;2.13;;
39948;SDS011;29070;48.102;-1.652;2024-01-25T07:42:54;7.80;;;2.87;;
39948;SDS011;29070;48.102;-1.652;2024-01-25T07:47:54;10.17;;;3.20;;
39948;SDS011;29070;48.102;-1.652;2024-01-25T07:52:55;7.77;;;2.93;;
39948;SDS011;29070;48.102;-1.652;2024-01-25T07:57:55;7.33;;;2.80;;
39948;SDS011;29070;48.102;-1.652;2024-01-25T08:02:55;10.60;;;3.08;;
39948;SDS011;29070;48.102;-1.652;2024-01-25T08:07:56;6.07;;;2.73;;
39948;SDS011;29070;48.102;-1.652;2024-01-25T08:12:56;5.43;;;2.50;;
39948;SDS011;29070;48.102;-1.652;2024-01-25T08:17:58;10.15;;;2.80;;
39948;SDS011;29070;48.102;-1.652;2024-01-25T08:22:59;10.60;;;3.00;;
39948;SDS011;29070;48.102;-1.652;2024-01-25T08:27:59;13.85;;;3.80;;
39948;SDS011;29070;48.102;-1.652;2024-01-25T08:33:00;9.38;;;3.05;;
39948;SDS011;29070;48.102;-1.652;2024-01-25T08:38:00;9.13;;;2.77;;
39948;SDS011;29070;48.102;-1.652;2024-01-25T08:43:00;13.37;;;4.60;;
39948;SDS011;29070;48.102;-1.652;2024-01-25T08:48:01;10.50;;;3.22;;
39948;SDS011;29070;48.102;-1.652;2024-01-25T08:53:01;10.13;;;3.63;;
39948;SDS011;29070;48.102;-1.652;2024-01-25T08:58:02;5.35;;;2.17;;
39948;SDS011;29070;48.102;-1.652;2024-01-25T09:03:02;8.52;;;2.65;;
39948;SDS011;29070;48.102;-1.652;2024-01-25T09:08:03;5.07;;;2.07;;
39948;SDS011;29070;48.102;-1.652;2024-01-25T09:13:03;7.80;;;1.95;;
39948;SDS011;29070;48.102;-1.652;2024-01-25T09:18:04;8.23;;;2.08;;
39948;SDS011;29070;48.102;-1.652;2024-01-25T09:23:05;7.35;;;1.75;;
39948;SDS011;29070;48.102;-1.652;2024-01-25T09:28:05;5.47;;;1.70;;
39948;SDS011;29070;48.102;-1.652;2024-01-25T09:33:08;7.23;;;2.10;;
39948;SDS011;29070;48.102;-1.652;2024-01-25T09:38:08;9.05;;;2.10;;
39948;SDS011;29070;48.102;-1.652;2024-01-25T09:43:09;4.33;;;1.50;;
39948;SDS011;29070;48.102;-1.652;2024-01-25T09:48:09;5.75;;;1.67;;
39948;SDS011;29070;48.102;-1.652;2024-01-25T09:53:10;10.35;;;1.70;;
39948;SDS011;29070;48.102;-1.652;2024-01-25T09:58:17;7.53;;;1.45;;
39948;SDS011;29070;48.102;-1.652;2024-01-25T10:03:18;5.75;;;1.20;;
39948;SDS011;29070;48.102;-1.652;2024-01-25T10:08:19;3.37;;;1.40;;
39948;SDS011;29070;48.102;-1.652;2024-01-25T10:13:23;4.78;;;1.55;;
39948;SDS011;29070;48.102;-1.652;2024-01-25T10:18:24;8.20;;;1.67;;
39948;SDS011;29070;48.102;-1.652;2024-01-25T10:23:25;3.28;;;1.20;;
39948;SDS011;29070;48.102;-1.652;2024-01-25T10:28:28;4.75;;;1.40;;
39948;SDS011;29070;48.102;-1.652;2024-01-25T10:33:30;3.88;;;1.70;;
39948;SDS011;29070;48.102;-1.652;2024-01-25T10:38:31;11.70;;;1.80;;
39948;SDS011;29070;48.102;-1.652;2024-01-25T10:43:34;4.55;;;1.63;;
39948;SDS011;29070;48.102;-1.652;2024-01-25T10:48:36;5.35;;;1.50;;
39948;SDS011;29070;48.102;-1.652;2024-01-25T10:53:38;4.45;;;1.40;;
39948;SDS011;29070;48.102;-1.652;2024-01-25T10:58:40;5.30;;;1.73;;
39948;SDS011;29070;48.102;-1.652;2024-01-25T11:03:41;7.53;;;1.90;;
39948;SDS011;29070;48.102;-1.652;2024-01-25T11:08:42;3.53;;;1.70;;
39948;SDS011;29070;48.102;-1.652;2024-01-25T11:13:42;7.93;;;2.08;;
39948;SDS011;29070;48.102;-1.652;2024-01-25T11:18:50;5.13;;;1.70;;
39948;SDS011;29070;48.102;-1.652;2024-01-25T11:23:58;3.25;;;1.50;;
39948;SDS011;29070;48.102;-1.652;2024-01-25T11:28:59;5.63;;;1.50;;
39948;SDS011;29070;48.102;-1.652;2024-01-25T11:34:00;3.90;;;1.60;;
39948;SDS011;29070;48.102;-1.652;2024-01-25T11:39:01;7.50;;;1.75;;
39948;SDS011;29070;48.102;-1.652;2024-01-25T11:44:02;8.35;;;1.90;;
39948;SDS011;29070;48.102;-1.652;2024-01-25T11:49:03;5.43;;;2.05;;
39948;SDS011;29070;48.102;-1.652;2024-01-25T11:54:03;6.00;;;1.75;;
39948;SDS011;29070;48.102;-1.652;2024-01-25T11:59:07;7.57;;;1.70;;
39948;SDS011;29070;48.102;-1.652;2024-01-25T12:04:08;8.52;;;1.77;;
39948;SDS011;29070;48.102;-1.652;2024-01-25T12:09:09;6.82;;;2.47;;
39948;SDS011;29070;48.102;-1.652;2024-01-25T12:14:10;5.05;;;1.60;;
39948;SDS011;29070;48.102;-1.652;2024-01-25T12:19:11;10.47;;;2.43;;
39948;SDS011;29070;48.102;-1.652;2024-01-25T12:24:11;11.70;;;3.00;;
39948;SDS011;29070;48.102;-1.652;2024-01-25T12:29:12;6.43;;;2.17;;
39948;SDS011;29070;48.102;-1.652;2024-01-25T12:34:13;7.55;;;2.65;;
39948;SDS011;29070;48.102;-1.652;2024-01-25T12:39:15;8.70;;;2.70;;
39948;SDS011;29070;48.102;-1.652;2024-01-25T12:44:16;7.63;;;2.97;;
39948;SDS011;29070;48.102;-1.652;2024-01-25T12:49:17;9.27;;;2.90;;
39948;SDS011;29070;48.102;-1.652;2024-01-25T12:54:18;8.57;;;2.60;;
39948;SDS011;29070;48.102;-1.652;2024-01-25T12:59:18;8.07;;;2.33;;
39948;SDS011;29070;48.102;-1.652;2024-01-25T13:04:19;8.68;;;2.95;;
39948;SDS011;29070;48.102;-1.652;2024-01-25T13:09:21;5.85;;;2.40;;
39948;SDS011;29070;48.102;-1.652;2024-01-25T13:14:22;9.70;;;2.25;;
39948;SDS011;29070;48.102;-1.652;2024-01-25T13:19:24;8.55;;;2.50;;
39948;SDS011;29070;48.102;-1.652;2024-01-25T13:24:24;5.87;;;1.90;;
39948;SDS011;29070;48.102;-1.652;2024-01-25T13:29:24;10.67;;;2.07;;
39948;SDS011;29070;48.102;-1.652;2024-01-25T13:34:25;8.50;;;2.37;;
39948;SDS011;29070;48.102;-1.652;2024-01-25T13:39:25;12.20;;;2.23;;
39948;SDS011;29070;48.102;-1.652;2024-01-25T13:44:25;7.97;;;2.92;;
39948;SDS011;29070;48.102;-1.652;2024-01-25T13:49:26;6.87;;;3.07;;
39948;SDS011;29070;48.102;-1.652;2024-01-25T13:54:26;10.02;;;2.67;;
39948;SDS011;29070;48.102;-1.652;2024-01-25T13:59:26;5.97;;;2.70;;
39948;SDS011;29070;48.102;-1.652;2024-01-25T14:04:27;6.23;;;2.50;;
39948;SDS011;29070;48.102;-1.652;2024-01-25T14:09:28;8.87;;;2.50;;
39948;SDS011;29070;48.102;-1.652;2024-01-25T14:14:29;10.43;;;2.20;;
39948;SDS011;29070;48.102;-1.652;2024-01-25T14:19:30;6.77;;;2.67;;
39948;SDS011;29070;48.102;-1.652;2024-01-25T14:24:30;5.83;;;2.20;;
39948;SDS011;29070;48.102;-1.652;2024-01-25T14:29:30;8.30;;;3.50;;
39948;SDS011;29070;48.102;-1.652;2024-01-25T14:34:33;11.23;;;2.50;;
39948;SDS011;29070;48.102;-1.652;2024-01-25T14:39:36;6.27;;;2.10;;
39948;SDS011;29070;48.102;-1.652;2024-01-25T14:44:36;5.38;;;2.00;;
39948;SDS011;29070;48.102;-1.652;2024-01-25T14:49:37;13.48;;;1.92;;
39948;SDS011;29070;48.102;-1.652;2024-01-25T14:54:38;4.80;;;1.93;;
39948;SDS011;29070;48.102;-1.652;2024-01-25T14:59:38;5.40;;;1.58;;
39948;SDS011;29070;48.102;-1.652;2024-01-25T15:04:39;7.47;;;2.37;;
39948;SDS011;29070;48.102;-1.652;2024-01-25T15:09:39;6.85;;;1.65;;
39948;SDS011;29070;48.102;-1.652;2024-01-25T15:14:40;3.65;;;1.75;;
39948;SDS011;29070;48.102;-1.652;2024-01-25T15:19:41;12.77;;;2.08;;
39948;SDS011;29070;48.102;-1.652;2024-01-25T15:24:41;8.47;;;1.67;;
39948;SDS011;29070;48.102;-1.652;2024-01-25T15:29:41;7.20;;;1.70;;
39948;SDS011;29070;48.102;-1.652;2024-01-25T15:34:42;8.17;;;1.80;;
39948;SDS011;29070;48.102;-1.652;2024-01-25T15:39:42;4.57;;;2.00;;
39948;SDS011;29070;48.102;-1.652;2024-01-25T15:44:44;6.97;;;2.28;;
39948;SDS011;29070;48.102;-1.652;2024-01-25T15:49:44;7.17;;;2.27;;
39948;SDS011;29070;48.102;-1.652;2024-01-25T15:54:45;6.72;;;2.13;;
39948;SDS011;29070;48.102;-1.652;2024-01-25T15:59:45;9.87;;;1.73;;
39948;SDS011;29070;48.102;-1.652;2024-01-25T16:04:47;7.38;;;2.20;;
39948;SDS011;29070;48.102;-1.652;2024-01-25T16:09:47;8.37;;;1.77;;
39948;SDS011;29070;48.102;-1.652;2024-01-25T16:14:47;11.10;;;2.30;;
39948;SDS011;29070;48.102;-1.652;2024-01-25T16:19:48;7.67;;;2.00;;
39948;SDS011;29070;48.102;-1.652;2024-01-25T16:24:48;5.73;;;1.87;;
39948;SDS011;29070;48.102;-1.652;2024-01-25T16:29:48;6.65;;;1.52;;
39948;SDS011;29070;48.102;-1.652;2024-01-25T16:34:49;3.83;;;1.30;;
39948;SDS011;29070;48.102;-1.652;2024-01-25T16:39:49;2.77;;;1.30;;
39948;SDS011;29070;48.102;-1.652;2024-01-25T16:44:49;2.90;;;1.47;;
39948;SDS011;29070;48.102;-1.652;2024-01-25T16:49:50;4.37;;;1.37;;
39948;SDS011;29070;48.102;-1.652;2024-01-25T16:54:50;2.83;;;1.00;;
39948;SDS011;29070;48.102;-1.652;2024-01-25T16:59:51;3.67;;;1.20;;
39948;SDS011;29070;48.102;-1.652;2024-01-25T17:04:53;3.70;;;1.70;;
39948;SDS011;29070;48.102;-1.652;2024-01-25T17:09:55;4.90;;;1.40;;
39948;SDS011;29070;48.102;-1.652;2024-01-25T17:14:55;4.57;;;1.60;;
39948;SDS011;29070;48.102;-1.652;2024-01-25T17:19:55;4.40;;;1.67;;
39948;SDS011;29070;48.102;-1.652;2024-01-25T17:24:56;3.77;;;2.10;;
39948;SDS011;29070;48.102;-1.652;2024-01-25T17:29:56;6.03;;;2.33;;
39948;SDS011;29070;48.102;-1.652;2024-01-25T17:34:56;12.30;;;3.00;;
39948;SDS011;29070;48.102;-1.652;2024-01-25T17:39:57;5.30;;;2.40;;
39948;SDS011;29070;48.102;-1.652;2024-01-25T17:44:57;8.07;;;3.67;;
39948;SDS011;29070;48.102;-1.652;2024-01-25T17:49:57;6.30;;;2.43;;
39948;SDS011;29070;48.102;-1.652;2024-01-25T17:54:58;8.47;;;2.97;;
39948;SDS011;29070;48.102;-1.652;2024-01-25T17:59:58;7.23;;;2.77;;
39948;SDS011;29070;48.102;-1.652;2024-01-25T18:04:58;9.43;;;2.57;;
39948;SDS011;29070;48.102;-1.652;2024-01-25T18:09:59;6.33;;;2.97;;
39948;SDS011;29070;48.102;-1.652;2024-01-25T18:14:59;9.40;;;3.40;;
39948;SDS011;29070;48.102;-1.652;2024-01-25T18:19:59;12.33;;;3.27;;
39948;SDS011;29070;48.102;-1.652;2024-01-25T18:25:00;8.50;;;3.07;;
39948;SDS011;29070;48.102;-1.652;2024-01-25T18:30:00;7.07;;;2.67;;
39948;SDS011;29070;48.102;-1.652;2024-01-25T18:35:00;12.50;;;3.25;;
39948;SDS011;29070;48.102;-1.652;2024-01-25T18:40:01;13.10;;;4.50;;
39948;SDS011;29070;48.102;-1.652;2024-01-25T18:45:03;13.38;;;4.13;;
39948;SDS011;29070;48.102;-1.652;2024-01-25T18:50:05;9.23;;;3.67;;
39948;SDS011;29070;48.102;-1.652;2024-01-25T18:55:06;12.10;;;5.10;;
39948;SDS011;29070;48.102;-1.652;2024-01-25T19:00:07;11.05;;;4.13;;
39948;SDS011;29070;48.102;-1.652;2024-01-25T19:05:09;15.70;;;4.38;;
39948;SDS011;29070;48.102;-1.652;2024-01-25T19:10:09;18.88;;;3.97;;
39948;SDS011;29070;48.102;-1.652;2024-01-25T19:15:10;10.27;;;3.67;;
39948;SDS011;29070;48.102;-1.652;2024-01-25T19:20:11;10.82;;;4.72;;
39948;SDS011;29070;48.102;-1.652;2024-01-25T19:25:11;11.63;;;4.25;;
39948;SDS011;29070;48.102;-1.652;2024-01-25T19:30:12;13.20;;;4.07;;
39948;SDS011;29070;48.102;-1.652;2024-01-25T19:35:15;12.27;;;4.20;;
39948;SDS011;29070;48.102;-1.652;2024-01-25T19:40:17;12.57;;;3.80;;
39948;SDS011;29070;48.102;-1.652;2024-01-25T19:45:17;11.80;;;4.53;;
39948;SDS011;29070;48.102;-1.652;2024-01-25T19:50:17;13.37;;;4.77;;
39948;SDS011;29070;48.102;-1.652;2024-01-25T19:55:18;13.53;;;4.47;;
39948;SDS011;29070;48.102;-1.652;2024-01-25T20:00:18;9.55;;;4.03;;
39948;SDS011;29070;48.102;-1.652;2024-01-25T20:05:19;6.85;;;3.47;;
39948;SDS011;29070;48.102;-1.652;2024-01-25T20:10:20;13.27;;;4.80;;
39948;SDS011;29070;48.102;-1.652;2024-01-25T20:15:20;16.17;;;5.57;;
39948;SDS011;29070;48.102;-1.652;2024-01-25T20:20:20;13.40;;;5.07;;
39948;SDS011;29070;48.102;-1.652;2024-01-25T20:25:21;15.38;;;4.97;;
39948;SDS011;29070;48.102;-1.652;2024-01-25T20:30:21;13.77;;;4.53;;
39948;SDS011;29070;48.102;-1.652;2024-01-25T20:35:22;15.48;;;4.32;;
39948;SDS011;29070;48.102;-1.652;2024-01-25T20:40:22;14.07;;;4.10;;
39948;SDS011;29070;48.102;-1.652;2024-01-25T20:45:23;12.57;;;4.37;;
39948;SDS011;29070;48.102;-1.652;2024-01-25T20:50:23;14.20;;;4.47;;
39948;SDS011;29070;48.102;-1.652;2024-01-25T20:55:23;13.90;;;4.43;;
39948;SDS011;29070;48.102;-1.652;2024-01-25T21:00:24;18.27;;;4.50;;
39948;SDS011;29070;48.102;-1.652;2024-01-25T21:05:24;17.70;;;4.73;;
39948;SDS011;29070;48.102;-1.652;2024-01-25T21:10:25;13.10;;;4.55;;
39948;SDS011;29070;48.102;-1.652;2024-01-25T21:15:26;12.25;;;4.75;;
39948;SDS011;29070;48.102;-1.652;2024-01-25T21:20:27;17.98;;;4.90;;
39948;SDS011;29070;48.102;-1.652;2024-01-25T21:25:27;15.07;;;4.33;;
39948;SDS011;29070;48.102;-1.652;2024-01-25T21:30:28;10.03;;;4.17;;
39948;SDS011;29070;48.102;-1.652;2024-01-25T21:35:28;13.35;;;4.00;;
39948;SDS011;29070;48.102;-1.652;2024-01-25T21:40:28;13.57;;;4.47;;
39948;SDS011;29070;48.102;-1.652;2024-01-25T21:45:29;10.05;;;3.53;;
39948;SDS011;29070;48.102;-1.652;2024-01-25T21:50:29;11.20;;;3.63;;
39948;SDS011;29070;48.102;-1.652;2024-01-25T21:55:30;20.80;;;4.33;;
39948;SDS011;29070;48.102;-1.652;2024-01-25T22:00:32;11.13;;;3.38;;
39948;SDS011;29070;48.102;-1.652;2024-01-25T22:05:32;13.33;;;3.57;;
39948;SDS011;29070;48.102;-1.652;2024-01-25T22:10:33;10.85;;;4.07;;
39948;SDS011;29070;48.102;-1.652;2024-01-25T22:15:33;12.03;;;4.00;;
39948;SDS011;29070;48.102;-1.652;2024-01-25T22:20:33;16.40;;;3.67;;
39948;SDS011;29070;48.102;-1.652;2024-01-25T22:25:34;12.37;;;4.03;;
39948;SDS011;29070;48.102;-1.652;2024-01-25T22:30:34;10.67;;;3.37;;
39948;SDS011;29070;48.102;-1.652;2024-01-25T22:35:34;9.87;;;2.80;;
39948;SDS011;29070;48.102;-1.652;2024-01-25T22:40:35;9.87;;;3.30;;
39948;SDS011;29070;48.102;-1.652;2024-01-25T22:45:35;14.70;;;3.23;;
39948;SDS011;29070;48.102;-1.652;2024-01-25T22:50:35;13.97;;;2.90;;
39948;SDS011;29070;48.102;-1.652;2024-01-25T22:55:36;10.80;;;2.77;;
39948;SDS011;29070;48.102;-1.652;2024-01-25T23:00:36;12.95;;;2.95;;
39948;SDS011;29070;48.102;-1.652;2024-01-25T23:05:39;11.82;;;2.38;;
39948;SDS011;29070;48.102;-1.652;2024-01-25T23:10:39;8.27;;;2.33;;
39948;SDS011;29070;48.102;-1.652;2024-01-25T23:15:39;11.63;;;2.90;;
39948;SDS011;29070;48.102;-1.652;2024-01-25T23:20:40;16.20;;;2.43;;
39948;SDS011;29070;48.102;-1.652;2024-01-25T23:25:40;16.67;;;3.07;;
39948;SDS011;29070;48.102;-1.652;2024-01-25T23:30:40;12.47;;;2.73;;
39948;SDS011;29070;48.102;-1.652;2024-01-25T23:35:41;9.57;;;2.27;;
39948;SDS011;29070;48.102;-1.652;2024-01-25T23:40:41;8.83;;;2.17;;
39948;SDS011;29070;48.102;-1.652;2024-01-25T23:45:42;17.83;;;2.63;;
39948;SDS011;29070;48.102;-1.652;2024-01-25T23:50:42;4.97;;;2.00;;
39948;SDS011;29070;48.102;-1.652;2024-01-25T23:55:43;17.00;;;3.00;;
